Time;durP1;ratioP1;P1;durP2;ratioP2;P2;SDS_P1;SDS_P2;PMS_P1;PMS_P2;Temp;Humidity;BMP_temperature;BMP_pressure;BME280_temperature;BME280_humidity;BME280_pressure;Samples;Min_cycle;Max_cycle;Signal;HPM_P1;HPM_P2
2023/05/20 00:00:24;;;;;;;6.73;2.00;;;;;;;11.81;83.54;102133.63;5056591;28;20466;-71
2023/05/20 00:02:50;;;;;;;6.33;1.90;;;;;;;11.76;84.50;102127.38;5056356;28;20537;-71
2023/05/20 00:05:17;;;;;;;21.73;3.10;;;;;;;11.71;84.43;102136.34;5056574;28;20470;-71
2023/05/20 00:07:44;;;;;;;7.57;2.20;;;;;;;11.69;84.58;102135.81;5056388;28;20508;-71
2023/05/20 00:10:11;;;;;;;9.80;2.23;;;;;;;11.69;84.70;102129.56;5056421;28;20498;-71
2023/05/20 00:12:38;;;;;;;6.00;1.90;;;;;;;11.63;84.95;102131.44;5056452;28;20517;-71
2023/05/20 00:15:08;;;;;;;8.13;2.27;;;;;;;11.69;84.87;102126.84;5056320;28;20490;-71
2023/05/20 00:17:34;;;;;;;5.47;1.77;;;;;;;11.67;85.02;102127.09;5056362;28;20457;-71
2023/05/20 00:20:01;;;;;;;6.47;1.73;;;;;;;11.59;85.74;102125.72;5056305;28;20462;-71
2023/05/20 00:22:27;;;;;;;6.73;2.00;;;;;;;11.57;86.25;102127.09;5056269;28;20533;-71
2023/05/20 00:24:54;;;;;;;7.17;2.00;;;;;;;11.56;86.43;102125.47;5056295;28;20438;-71
2023/05/20 00:27:20;;;;;;;8.90;2.03;;;;;;;11.57;86.05;102118.97;5056441;28;20492;-71
2023/05/20 00:29:47;;;;;;;6.67;2.10;;;;;;;11.53;83.51;102126.00;5055782;28;20462;-71
2023/05/20 00:32:15;;;;;;;6.77;2.50;;;;;;;11.54;82.67;102124.91;5056046;28;20445;-71
2023/05/20 00:34:43;;;;;;;6.00;2.17;;;;;;;11.47;83.41;102129.81;5055996;28;20484;-71
2023/05/20 00:37:09;;;;;;;6.70;2.30;;;;;;;11.45;83.17;102126.53;5055993;28;20442;-72
2023/05/20 00:39:36;;;;;;;7.30;2.07;;;;;;;11.40;83.19;102121.91;5055889;28;20462;-72
2023/05/20 00:42:02;;;;;;;5.37;1.80;;;;;;;11.47;83.62;102127.09;5055917;28;20482;-71
2023/05/20 00:44:29;;;;;;;7.53;2.30;;;;;;;11.52;84.74;102130.63;5055848;28;20470;-71
2023/05/20 00:46:56;;;;;;;6.77;1.87;;;;;;;11.54;85.79;102127.63;5055507;28;20537;-71
2023/05/20 00:49:24;;;;;;;8.17;2.20;;;;;;;11.43;87.61;102134.13;5055640;28;20553;-71
2023/05/20 00:51:51;;;;;;;7.73;2.50;;;;;;;11.47;87.51;102127.09;5055758;28;20534;-72
2023/05/20 00:54:17;;;;;;;7.17;2.50;;;;;;;11.57;87.11;102132.53;5055611;28;20485;-71
2023/05/20 00:56:44;;;;;;;9.70;2.10;;;;;;;11.62;87.26;102124.38;5055636;28;20449;-72
2023/05/20 00:59:12;;;;;;;7.20;2.13;;;;;;;11.67;86.93;102116.25;5055242;28;20496;-71
2023/05/20 01:01:38;;;;;;;6.73;1.63;;;;;;;11.69;87.28;102119.53;5055603;28;20438;-71
2023/05/20 01:04:05;;;;;;;8.90;2.73;;;;;;;11.68;87.30;102117.88;5055499;28;20438;-71
2023/05/20 01:06:33;;;;;;;6.57;2.23;;;;;;;11.68;87.71;102114.34;5055104;28;20989;-72
2023/05/20 01:09:00;;;;;;;9.83;2.40;;;;;;;11.67;87.96;102118.16;5055131;28;21046;-68
2023/05/20 01:11:31;;;;;;;7.40;2.10;;;;;;;11.64;88.40;102116.78;5055334;28;20444;-71
2023/05/20 01:14:03;;;;;;;5.80;1.80;;;;;;;11.70;88.62;102107.56;5055302;28;20470;-71
2023/05/20 01:16:32;;;;;;;6.90;2.67;;;;;;;11.74;88.55;102108.66;5055274;28;20423;-70
2023/05/20 01:19:01;;;;;;;6.47;2.13;;;;;;;11.78;88.89;102117.91;5055172;28;20536;-71
2023/05/20 01:21:30;;;;;;;5.53;1.87;;;;;;;11.78;88.91;102112.47;5055184;28;20890;-70
2023/05/20 01:24:00;;;;;;;5.97;2.17;;;;;;;11.85;88.57;102104.88;5054851;28;20537;-71
2023/05/20 01:26:27;;;;;;;5.67;1.90;;;;;;;11.90;88.70;102106.78;5055065;28;20454;-71
2023/05/20 01:28:56;;;;;;;6.83;1.80;;;;;;;11.93;88.55;102108.16;5054678;28;20449;-70
2023/05/20 01:31:26;;;;;;;7.70;2.30;;;;;;;11.92;88.78;102103.81;5054635;28;20958;-71
2023/05/20 01:33:56;;;;;;;5.43;1.67;;;;;;;11.92;88.46;102106.53;5054888;28;20505;-70
2023/05/20 01:36:25;;;;;;;5.97;2.10;;;;;;;11.89;88.68;102096.19;5054968;28;20423;-71
2023/05/20 01:38:53;;;;;;;5.50;1.63;;;;;;;11.89;88.71;102096.19;5054681;28;20525;-71
2023/05/20 01:41:22;;;;;;;6.00;1.80;;;;;;;11.93;88.54;102100.00;5054755;28;20462;-71
2023/05/20 01:43:49;;;;;;;7.33;2.70;;;;;;;11.91;88.71;102099.44;5054996;28;20450;-71
2023/05/20 01:46:16;;;;;;;8.07;2.67;;;;;;;11.92;88.94;102092.94;5054686;28;20879;-71
2023/05/20 01:48:42;;;;;;;6.90;1.83;;;;;;;11.83;88.09;102096.19;5054593;28;20442;-71
2023/05/20 01:51:09;;;;;;;6.50;2.17;;;;;;;11.78;86.94;102088.03;5054335;28;20446;-70
2023/05/20 01:53:36;;;;;;;7.40;2.13;;;;;;;11.69;86.68;102091.56;5054480;28;20529;-71
2023/05/20 01:56:02;;;;;;;6.77;2.20;;;;;;;11.71;85.69;102086.66;5054458;28;20485;-71
2023/05/20 01:58:30;;;;;;;6.53;2.03;;;;;;;11.70;86.12;102083.13;5054105;28;20837;-71
2023/05/20 02:00:57;;;;;;;6.23;2.13;;;;;;;11.67;86.83;102080.16;5054021;28;20459;-70
2023/05/20 02:03:23;;;;;;;10.60;2.17;;;;;;;11.63;87.73;102071.72;5054039;28;20982;-70
2023/05/20 02:05:50;;;;;;;6.47;2.13;;;;;;;11.62;88.71;102076.34;5054325;28;20474;-71
2023/05/20 02:08:17;;;;;;;6.20;1.73;;;;;;;11.62;89.31;102075.53;5053984;28;20993;-71
2023/05/20 02:10:43;;;;;;;8.10;2.33;;;;;;;11.56;90.57;102082.06;5054190;28;20494;-71
2023/05/20 02:13:10;;;;;;;6.30;1.83;;;;;;;11.60;90.53;102085.88;5054152;28;20993;-71
2023/05/20 02:15:41;;;;;;;6.43;2.30;;;;;;;11.61;90.73;102079.34;5054043;28;20482;-71
2023/05/20 02:18:07;;;;;;;6.87;1.90;;;;;;;11.62;90.94;102081.78;5054162;28;20525;-71
2023/05/20 02:20:35;;;;;;;7.90;2.57;;;;;;;11.58;91.28;102077.97;5053705;28;20987;-71
2023/05/20 02:23:04;;;;;;;5.53;1.83;;;;;;;11.58;91.18;102091.53;5054030;28;20512;-71
2023/05/20 02:25:31;;;;;;;7.17;2.53;;;;;;;11.56;91.00;102092.91;5053944;28;20438;-71
2023/05/20 02:27:58;;;;;;;6.63;2.17;;;;;;;11.53;91.20;102096.16;5053845;28;20442;-71
2023/05/20 02:30:24;;;;;;;8.00;2.30;;;;;;;11.53;91.00;102088.03;5053753;28;20462;-71
2023/05/20 02:32:52;;;;;;;6.67;2.10;;;;;;;11.49;90.59;102087.75;5053745;28;20446;-71
2023/05/20 02:35:19;;;;;;;7.20;2.23;;;;;;;11.43;91.38;102079.88;5053721;28;20519;-71
2023/05/20 02:37:47;;;;;;;6.57;2.40;;;;;;;11.41;91.50;102084.75;5053766;28;20442;-73
2023/05/20 02:40:13;;;;;;;9.30;2.27;;;;;;;11.30;92.02;102089.34;5053712;28;20466;-71
2023/05/20 02:42:40;;;;;;;6.50;2.30;;;;;;;11.32;92.02;102090.69;5053717;28;20529;-71
2023/05/20 02:45:08;;;;;;;11.77;2.53;;;;;;;11.32;91.92;102087.16;5053641;28;20474;-71
2023/05/20 02:47:35;;;;;;;6.23;1.70;;;;;;;11.27;92.07;102087.97;5053633;28;20447;-70
2023/05/20 02:50:03;;;;;;;6.50;2.03;;;;;;;11.31;92.24;102093.69;5053495;28;20545;-71
2023/05/20 02:52:29;;;;;;;5.70;1.90;;;;;;;11.33;91.93;102088.78;5053222;28;20466;-70
2023/05/20 02:54:56;;;;;;;6.83;2.60;;;;;;;11.26;92.09;102080.94;5053404;28;20485;-71
2023/05/20 02:57:22;;;;;;;6.77;2.10;;;;;;;11.23;92.40;102086.88;5053423;28;20435;-71
2023/05/20 02:59:49;;;;;;;5.20;1.53;;;;;;;11.20;92.22;102089.31;5053352;28;20470;-70
2023/05/20 03:02:16;;;;;;;6.67;2.00;;;;;;;11.21;92.29;102091.78;5053370;28;20438;-71
2023/05/20 03:04:45;;;;;;;9.70;2.67;;;;;;;11.18;92.65;102086.88;5053351;28;20841;-71
2023/05/20 03:07:13;;;;;;;7.00;1.97;;;;;;;11.18;92.66;102091.50;5053151;28;20469;-71
2023/05/20 03:09:40;;;;;;;7.83;2.10;;;;;;;11.14;92.78;102091.19;5053226;28;20501;-71
2023/05/20 03:12:07;;;;;;;5.97;1.97;;;;;;;11.10;93.44;102095.53;5052102;28;20959;-71
2023/05/20 03:14:33;;;;;;;7.40;2.40;;;;;;;11.09;93.56;102099.31;5053141;28;20513;-70
2023/05/20 03:17:00;;;;;;;6.87;2.20;;;;;;;11.07;93.72;102102.31;5053176;28;20442;-71
2023/05/20 03:19:26;;;;;;;6.03;1.80;;;;;;;11.06;92.51;102105.28;5052781;28;20895;-71
2023/05/20 03:21:53;;;;;;;5.60;1.90;;;;;;;11.10;91.24;102100.94;5053144;28;20460;-70
2023/05/20 03:24:22;;;;;;;7.90;2.10;;;;;;;11.05;89.82;102104.47;5053034;28;20955;-71
2023/05/20 03:26:49;;;;;;;7.07;2.07;;;;;;;10.99;89.33;102104.72;5052759;28;20446;-71
2023/05/20 03:29:16;;;;;;;7.87;2.50;;;;;;;11.01;89.59;102107.97;5054098;28;20830;-71
2023/05/20 03:31:43;;;;;;;9.03;3.03;;;;;;;11.02;90.14;102112.31;5052734;28;20951;-71
2023/05/20 03:34:10;;;;;;;7.73;2.20;;;;;;;11.10;90.57;102106.38;5052960;28;20480;-70
2023/05/20 03:36:36;;;;;;;7.93;2.00;;;;;;;11.14;91.52;102109.38;5053001;28;20453;-71
2023/05/20 03:39:03;;;;;;;6.00;1.93;;;;;;;11.21;92.32;102108.03;5052911;28;20553;-71
2023/05/20 03:41:32;;;;;;;6.90;2.00;;;;;;;11.27;92.69;102112.38;5052618;28;20442;-71
2023/05/20 03:43:58;;;;;;;7.33;2.47;;;;;;;11.37;92.76;102112.41;5052948;28;20557;-71
2023/05/20 03:46:25;;;;;;;8.47;2.70;;;;;;;11.41;92.76;102111.88;5052857;28;20488;-71
2023/05/20 03:48:51;;;;;;;5.43;1.87;;;;;;;11.45;92.62;102105.63;5052523;28;20958;-71
2023/05/20 03:51:18;;;;;;;6.63;2.50;;;;;;;11.47;92.41;102116.25;5052852;28;20469;-71
2023/05/20 03:53:44;;;;;;;7.73;2.30;;;;;;;11.48;92.52;102123.28;5052847;28;20470;-71
2023/05/20 03:56:11;;;;;;;8.47;2.20;;;;;;;11.50;92.42;102121.91;5052689;28;20486;-71
2023/05/20 03:58:39;;;;;;;5.93;1.83;;;;;;;11.53;93.12;102128.72;5052979;28;20446;-71
2023/05/20 04:01:06;;;;;;;8.00;2.27;;;;;;;11.63;92.47;102115.16;5052693;28;20484;-71
2023/05/20 04:03:32;;;;;;;7.00;2.23;;;;;;;11.74;92.25;102124.13;5052754;28;20449;-70
2023/05/20 04:05:59;;;;;;;7.20;2.67;;;;;;;11.79;91.83;102121.41;5052886;28;20465;-71
2023/05/20 04:08:26;;;;;;;5.60;1.70;;;;;;;11.86;91.84;102114.69;5052378;28;20500;-71
2023/05/20 04:10:56;;;;;;;8.43;2.53;;;;;;;11.96;91.77;102118.47;5052310;28;20494;-70
2023/05/20 04:13:24;;;;;;;6.43;2.57;;;;;;;11.97;91.24;102110.03;5052682;28;20524;-71
2023/05/20 04:15:52;;;;;;;5.80;1.93;;;;;;;11.98;91.11;102116.28;5052809;28;20477;-71
2023/05/20 04:18:18;;;;;;;7.13;2.27;;;;;;;11.99;90.95;102113.28;5052626;28;20530;-72
2023/05/20 04:20:45;;;;;;;9.83;2.33;;;;;;;12.07;90.66;102122.78;5052655;28;20462;-67
2023/05/20 04:23:12;;;;;;;6.83;1.97;;;;;;;12.11;90.55;102116.53;5053091;28;20442;-70
2023/05/20 04:25:40;;;;;;;5.90;1.93;;;;;;;12.16;90.36;102115.72;5056305;28;20435;-71
2023/05/20 04:28:06;;;;;;;7.43;2.27;;;;;;;12.15;90.06;102111.38;5055909;28;20485;-71
2023/05/20 04:30:34;;;;;;;8.13;2.53;;;;;;;12.18;89.58;102113.56;5056038;28;20497;-71
2023/05/20 04:33:02;;;;;;;7.30;2.50;;;;;;;12.20;89.36;102108.66;5056189;28;20488;-73
2023/05/20 04:35:29;;;;;;;6.10;1.90;;;;;;;12.19;89.32;102108.94;5056047;28;20513;-71
2023/05/20 04:37:56;;;;;;;6.30;2.00;;;;;;;12.20;89.87;102105.13;5055706;28;20452;-70
2023/05/20 04:40:22;;;;;;;10.10;2.53;;;;;;;12.25;89.91;102114.06;5055855;28;20509;-70
2023/05/20 04:42:49;;;;;;;5.90;2.30;;;;;;;12.33;89.76;102115.41;5055830;28;20499;-70
2023/05/20 04:45:17;;;;;;;6.30;1.90;;;;;;;12.30;88.29;102114.06;5055752;28;20932;-70
2023/05/20 04:47:44;;;;;;;7.87;2.80;;;;;;;12.25;87.59;102110.53;5055478;28;20446;-70
2023/05/20 04:50:13;;;;;;;19.57;3.50;;;;;;;12.12;86.31;102122.78;5055372;28;20476;-70
2023/05/20 04:52:44;;;;;;;7.33;2.37;;;;;;;12.12;86.54;102120.06;5055817;28;20524;-70
2023/05/20 04:55:12;;;;;;;8.90;2.23;;;;;;;12.11;86.21;102123.88;5055395;28;20469;-70
2023/05/20 04:57:40;;;;;;;5.87;1.90;;;;;;;12.07;86.21;102115.44;5055628;28;20533;-70
2023/05/20 05:00:09;;;;;;;5.83;1.87;;;;;;;12.06;87.32;102121.97;5055568;28;20470;-70
2023/05/20 05:02:36;;;;;;;6.47;2.10;;;;;;;12.15;88.97;102111.38;5055561;28;20434;-70
2023/05/20 05:05:02;;;;;;;12.27;3.10;;;;;;;12.11;89.55;102111.09;5055516;28;20477;-70
2023/05/20 05:07:30;;;;;;;7.67;2.60;;;;;;;12.10;89.97;102106.78;5055171;28;20468;-70
2023/05/20 05:09:57;;;;;;;6.40;2.30;;;;;;;12.15;90.35;102105.13;5055250;28;20462;-70
2023/05/20 05:12:24;;;;;;;9.17;2.90;;;;;;;12.24;89.97;102103.50;5055312;28;20450;-70
2023/05/20 05:14:50;;;;;;;6.60;2.33;;;;;;;12.20;90.10;102105.94;5055262;28;20438;-70
2023/05/20 05:17:17;;;;;;;8.40;2.97;;;;;;;12.28;90.38;102101.84;5055301;28;20450;-70
2023/05/20 05:19:43;;;;;;;8.87;2.87;;;;;;;12.28;89.85;102097.22;5055181;28;20553;-71
2023/05/20 05:22:10;;;;;;;10.43;2.23;;;;;;;12.36;89.60;102090.44;5054940;28;20438;-69
2023/05/20 05:24:38;;;;;;;10.47;3.40;;;;;;;12.42;89.31;102088.50;5055194;28;20443;-70
2023/05/20 05:27:05;;;;;;;8.77;3.20;;;;;;;12.48;89.57;102090.09;5054993;28;20448;-70
2023/05/20 05:29:32;;;;;;;6.10;2.33;;;;;;;12.55;89.05;102090.63;5054972;28;20458;-70
2023/05/20 05:31:58;;;;;;;7.13;2.30;;;;;;;12.58;89.22;102100.97;5054653;28;20481;-69
2023/05/20 05:34:25;;;;;;;7.33;2.57;;;;;;;12.59;89.07;102100.69;5054386;28;20450;-70
2023/05/20 05:36:51;;;;;;;7.90;2.43;;;;;;;12.60;89.16;102096.84;5053960;28;21034;-73
2023/05/20 05:39:18;;;;;;;6.97;2.70;;;;;;;12.67;89.06;102087.63;5054751;28;20462;-69
2023/05/20 05:41:46;;;;;;;7.33;2.50;;;;;;;12.72;88.95;102099.28;5054765;28;20442;-69
2023/05/20 05:44:13;;;;;;;6.70;2.73;;;;;;;12.77;88.91;102096.53;5054815;28;20447;-69
2023/05/20 05:46:40;;;;;;;6.33;2.00;;;;;;;12.87;88.58;102096.47;5054692;28;20451;-69
2023/05/20 05:49:07;;;;;;;9.87;2.63;;;;;;;12.96;88.48;102095.91;5054642;28;20465;-69
2023/05/20 05:51:33;;;;;;;9.40;2.93;;;;;;;13.02;88.19;102101.03;5054607;28;20481;-69
2023/05/20 05:54:00;;;;;;;9.20;2.17;;;;;;;13.07;88.14;102095.56;5054566;28;20438;-68
2023/05/20 05:56:26;;;;;;;5.90;2.20;;;;;;;13.13;87.65;102088.19;5054478;28;20489;-69
2023/05/20 05:58:54;;;;;;;8.77;2.70;;;;;;;13.15;86.57;102083.28;5054174;28;20438;-69
2023/05/20 06:01:21;;;;;;;9.93;3.23;;;;;;;13.21;85.74;102090.31;5054093;28;20814;-69
2023/05/20 06:03:47;;;;;;;7.20;2.47;;;;;;;13.24;85.34;102092.53;5054063;28;20529;-68
2023/05/20 06:06:14;;;;;;;9.93;3.30;;;;;;;13.28;86.21;102084.59;5054359;28;20464;-69
2023/05/20 06:08:41;;;;;;;8.57;2.17;;;;;;;13.28;87.46;102079.97;5053841;28;20552;-68
2023/05/20 06:11:07;;;;;;;6.10;2.20;;;;;;;13.36;87.41;102082.06;5054316;28;20445;-69
2023/05/20 06:13:35;;;;;;;6.30;2.57;;;;;;;13.39;87.28;102080.72;5054264;28;20870;-69
2023/05/20 06:16:03;;;;;;;7.40;2.80;;;;;;;13.35;87.44;102080.47;5054048;28;21010;-69
2023/05/20 06:18:30;;;;;;;7.93;2.70;;;;;;;13.45;87.37;102073.31;5054145;28;20530;-69
2023/05/20 06:20:56;;;;;;;10.93;3.67;;;;;;;13.47;87.46;102069.22;5054032;28;20466;-69
2023/05/20 06:23:23;;;;;;;8.13;3.17;;;;;;;13.56;87.27;102075.69;5054057;28;20474;-69
2023/05/20 06:25:50;;;;;;;7.43;2.57;;;;;;;13.61;86.69;102083.81;5054018;28;20444;-69
2023/05/20 06:28:17;;;;;;;7.77;2.40;;;;;;;13.60;86.57;102081.38;5053617;28;20446;-69
2023/05/20 06:30:44;;;;;;;10.53;3.87;;;;;;;13.65;86.63;102088.69;5053818;28;20462;-69
2023/05/20 06:33:12;;;;;;;6.77;2.20;;;;;;;13.70;86.63;102084.00;5053867;28;20561;-69
2023/05/20 06:35:38;;;;;;;8.03;3.43;;;;;;;13.78;85.92;102082.59;5053436;28;20486;-69
2023/05/20 06:38:05;;;;;;;7.67;2.80;;;;;;;13.82;86.11;102089.91;5053722;28;20465;-68
2023/05/20 06:40:31;;;;;;;9.53;2.47;;;;;;;13.88;86.06;102096.91;5053589;28;20466;-69
2023/05/20 06:42:58;;;;;;;7.77;2.60;;;;;;;13.94;85.64;102096.88;5053709;28;20446;-69
2023/05/20 06:45:25;;;;;;;8.00;2.97;;;;;;;13.96;85.53;102097.41;5053357;28;20958;-69
2023/05/20 06:47:53;;;;;;;8.57;2.70;;;;;;;13.94;85.83;102096.88;5053490;28;20492;-68
2023/05/20 06:50:21;;;;;;;9.23;3.30;;;;;;;13.89;85.72;102095.81;5053505;28;20557;-68
2023/05/20 06:52:47;;;;;;;8.17;3.00;;;;;;;13.89;85.64;102095.00;5053702;28;20537;-68
2023/05/20 06:55:14;;;;;;;13.17;2.77;;;;;;;13.86;86.02;102084.72;5053385;28;20460;-68
2023/05/20 06:57:41;;;;;;;8.37;2.43;;;;;;;13.89;85.88;102084.13;5053512;28;20499;-68
2023/05/20 07:00:09;;;;;;;7.60;3.00;;;;;;;13.87;86.09;102086.31;5053189;28;20545;-68
2023/05/20 07:02:35;;;;;;;7.90;2.83;;;;;;;13.98;85.76;102085.13;5053375;28;20447;-68
2023/05/20 07:05:02;;;;;;;6.60;2.30;;;;;;;14.02;83.65;102080.72;5053409;28;20460;-68
2023/05/20 07:07:30;;;;;;;6.57;2.80;;;;;;;13.93;84.20;102079.72;5052861;28;20493;-67
2023/05/20 07:09:57;;;;;;;18.50;2.70;;;;;;;13.99;85.03;102081.31;5052836;28;20831;-68
2023/05/20 07:12:24;;;;;;;15.83;3.90;;;;;;;14.00;84.81;102084.84;5053213;28;20517;-69
2023/05/20 07:14:51;;;;;;;9.50;3.13;;;;;;;14.02;83.88;102085.34;5053238;28;20896;-70
2023/05/20 07:17:17;;;;;;;9.40;2.30;;;;;;;14.07;83.58;102079.84;5053075;28;20525;-71
2023/05/20 07:19:44;;;;;;;9.60;2.87;;;;;;;14.12;84.88;102077.91;5053064;28;20466;-71
2023/05/20 07:22:10;;;;;;;9.87;3.03;;;;;;;14.19;85.36;102080.28;5053129;28;20449;-70
2023/05/20 07:24:38;;;;;;;8.10;3.50;;;;;;;14.27;85.42;102084.31;5052787;28;20495;-71
2023/05/20 07:27:05;;;;;;;8.53;3.20;;;;;;;14.34;85.29;102087.47;5053080;28;20449;-71
2023/05/20 07:29:32;;;;;;;9.33;3.17;;;;;;;14.44;84.91;102083.84;5052943;28;20461;-73
2023/05/20 07:31:59;;;;;;;7.50;2.80;;;;;;;14.56;84.09;102081.53;5053062;28;20442;-68
2023/05/20 07:34:25;;;;;;;7.60;3.07;;;;;;;14.61;84.16;102078.78;5052750;28;20473;-69
2023/05/20 07:36:52;;;;;;;7.63;2.40;;;;;;;14.48;84.22;102072.09;5052931;28;20548;-68
2023/05/20 07:39:19;;;;;;;7.47;2.87;;;;;;;14.60;84.02;102068.94;5052947;28;20466;-70
2023/05/20 07:41:46;;;;;;;7.10;3.00;;;;;;;14.63;83.84;102065.66;5052996;28;20445;-69
2023/05/20 07:44:13;;;;;;;7.87;2.60;;;;;;;14.81;83.79;102072.22;5052921;28;20548;-70
2023/05/20 07:46:40;;;;;;;7.87;2.60;;;;;;;14.93;83.29;102072.63;5052786;28;20879;-72
2023/05/20 07:49:07;;;;;;;9.73;2.60;;;;;;;15.06;82.66;102080.09;5052850;28;20466;-72
2023/05/20 07:51:34;;;;;;;10.40;2.80;;;;;;;15.13;81.86;102063.31;5052939;28;20481;-72
2023/05/20 07:54:00;;;;;;;6.33;2.60;;;;;;;15.15;81.96;102069.31;5052939;28;20442;-72
2023/05/20 07:56:27;;;;;;;7.90;2.23;;;;;;;15.35;81.69;102065.44;5052829;28;20481;-72
2023/05/20 07:58:57;;;;;;;9.13;3.53;;;;;;;15.45;80.61;102059.00;5054087;28;20947;-72
2023/05/20 08:01:23;;;;;;;8.27;2.70;;;;;;;15.47;78.57;102059.53;5056737;28;20445;-72
2023/05/20 08:03:50;;;;;;;10.13;3.13;;;;;;;15.55;78.59;102054.22;5056746;28;20433;-72
2023/05/20 08:06:19;;;;;;;8.83;2.20;;;;;;;15.63;78.73;102055.47;5056657;28;20464;-72
2023/05/20 08:08:47;;;;;;;10.53;3.30;;;;;;;15.64;78.79;102054.38;5056103;28;20529;-72
2023/05/20 08:11:13;;;;;;;7.90;2.53;;;;;;;15.66;78.59;102054.06;5056508;28;20449;-72
2023/05/20 08:13:40;;;;;;;12.33;2.73;;;;;;;15.86;78.30;102048.25;5056515;28;20444;-72
2023/05/20 08:16:08;;;;;;;6.37;2.23;;;;;;;16.04;78.36;102049.31;5056433;28;20517;-71
2023/05/20 08:18:36;;;;;;;7.60;2.63;;;;;;;16.20;77.23;102047.88;5056467;28;20437;-72
2023/05/20 08:21:03;;;;;;;10.03;2.80;;;;;;;16.35;76.94;102049.53;5056374;28;20442;-72
2023/05/20 08:23:30;;;;;;;7.93;2.43;;;;;;;16.49;75.79;102049.50;5056328;28;20482;-72
2023/05/20 08:26:00;;;;;;;10.30;2.57;;;;;;;16.42;75.20;102049.91;5056233;28;20449;-72
2023/05/20 08:28:27;;;;;;;8.13;2.90;;;;;;;16.51;75.08;102042.63;5056183;28;20431;-72
2023/05/20 08:30:53;;;;;;;7.40;2.73;;;;;;;16.48;74.56;102036.97;5056161;28;20465;-72
2023/05/20 08:33:22;;;;;;;10.20;3.10;;;;;;;16.63;74.37;102036.63;5055866;28;20449;-72
2023/05/20 08:35:49;;;;;;;8.20;3.00;;;;;;;16.82;74.94;102042.81;5056027;28;20504;-72
2023/05/20 08:38:16;;;;;;;8.90;2.90;;;;;;;16.79;73.63;102037.16;5055765;28;20445;-72
2023/05/20 08:40:42;;;;;;;6.07;2.20;;;;;;;16.93;73.18;102037.91;5055574;28;20499;-72
2023/05/20 08:43:09;;;;;;;7.53;2.77;;;;;;;17.07;73.02;102032.41;5056006;28;20957;-72
2023/05/20 08:45:38;;;;;;;6.30;2.10;;;;;;;17.18;73.21;102024.75;5055616;28;20450;-72
2023/05/20 08:48:06;;;;;;;10.77;3.30;;;;;;;17.04;71.56;102011.91;5055742;28;20442;-72
2023/05/20 08:50:34;;;;;;;6.33;2.40;;;;;;;17.12;72.18;102011.19;5055633;28;20505;-72
2023/05/20 08:53:01;;;;;;;7.80;3.30;;;;;;;17.28;72.13;102019.84;5055366;28;20442;-72
2023/05/20 08:55:37;;;;;;;5.87;2.23;;;;;;;17.23;72.34;102019.97;5055679;28;20446;-72
2023/05/20 08:58:04;;;;;;;6.47;2.30;;;;;;;17.54;72.24;102024.72;5055555;28;20474;-71
2023/05/20 09:00:30;;;;;;;6.60;2.50;;;;;;;17.71;70.40;102022.06;5055493;28;20896;-72
2023/05/20 09:03:00;;;;;;;7.33;2.60;;;;;;;17.85;70.21;102022.81;5055503;28;20815;-72
2023/05/20 09:05:27;;;;;;;6.20;2.47;;;;;;;17.82;68.90;102019.88;5055129;28;20533;-72
2023/05/20 09:08:05;;;;;;;5.60;1.83;;;;;;;17.85;69.88;102016.53;5055291;28;20455;-72
2023/05/20 09:10:32;;;;;;;7.40;2.87;;;;;;;17.96;68.06;102014.31;5054091;28;20504;-72
2023/05/20 09:13:00;;;;;;;5.83;2.10;;;;;;;17.93;69.22;102017.66;5055300;28;20537;-71
2023/05/20 09:15:27;;;;;;;8.07;2.67;;;;;;;18.00;69.15;102018.03;5055259;28;20446;-71
2023/05/20 09:17:53;;;;;;;8.80;2.40;;;;;;;18.05;68.66;102031.59;5054844;28;21102;-72
2023/05/20 09:20:22;;;;;;;5.67;2.10;;;;;;;17.95;68.01;102029.16;5055089;28;20462;-72
2023/05/20 09:22:51;;;;;;;7.33;2.37;;;;;;;17.92;68.15;102019.59;5055179;28;20443;-71
2023/05/20 09:25:21;;;;;;;8.13;3.20;;;;;;;18.07;68.33;102023.88;5055078;28;20447;-71
2023/05/20 09:27:48;;;;;;;6.80;2.37;;;;;;;18.23;68.27;102010.53;5055005;28;20465;-72
2023/05/20 09:30:15;;;;;;;6.70;2.30;;;;;;;18.18;67.16;102014.22;5055814;28;20560;-71
2023/05/20 09:32:41;;;;;;;7.07;1.80;;;;;;;18.18;66.69;102022.47;5054687;28;20446;-72
2023/05/20 09:35:08;;;;;;;6.03;2.03;;;;;;;18.09;66.94;102021.63;5055016;28;20530;-72
2023/05/20 09:37:36;;;;;;;7.70;2.47;;;;;;;17.94;67.32;102011.09;5055015;28;20492;-72
2023/05/20 09:40:08;;;;;;;7.50;2.70;;;;;;;17.77;67.00;102012.59;5054844;28;20502;-72
2023/05/20 09:42:42;;;;;;;8.27;2.70;;;;;;;17.61;68.87;102017.63;5054878;28;20431;-72
2023/05/20 09:45:09;;;;;;;7.90;2.87;;;;;;;17.51;68.09;102020.66;5054442;28;20426;-71
2023/05/20 09:47:38;;;;;;;8.60;3.03;;;;;;;17.57;68.83;102019.38;5054773;28;20464;-71
2023/05/20 09:50:08;;;;;;;6.00;2.27;;;;;;;17.73;69.46;102013.53;5054713;28;21001;-72
2023/05/20 09:52:36;;;;;;;8.57;2.60;;;;;;;17.81;69.33;102016.34;5054335;28;20524;-72
2023/05/20 09:55:04;;;;;;;7.40;2.90;;;;;;;17.99;68.63;102019.97;5054597;28;20442;-72
2023/05/20 09:57:33;;;;;;;6.33;2.00;;;;;;;18.00;67.53;102020.78;5054576;28;20577;-72
2023/05/20 10:00:02;;;;;;;9.03;2.90;;;;;;;18.03;67.26;102026.44;5054980;28;20580;-72
2023/05/20 10:02:29;;;;;;;7.30;2.70;;;;;;;18.00;67.66;102020.78;5054451;28;20874;-72
2023/05/20 10:04:58;;;;;;;6.70;2.60;;;;;;;17.88;68.73;102019.44;5054142;28;20446;-72
2023/05/20 10:08:08;;;;;;;7.83;2.77;;;;;;;17.98;68.47;102018.34;5054387;28;20465;-72
2023/05/20 10:10:47;;;;;;;6.50;2.20;;;;;;;18.02;68.28;102010.31;4988104;28;20560;-72
2023/05/20 10:13:24;;;;;;;7.03;2.67;;;;;;;18.13;68.11;102015.19;5054411;28;20438;-72
2023/05/20 10:16:01;;;;;;;8.27;3.10;;;;;;;18.13;68.12;102015.19;5054318;28;20422;-72
2023/05/20 10:18:40;;;;;;;8.00;3.40;;;;;;;18.17;67.50;102007.13;5054155;28;20966;-71
2023/05/20 10:21:15;;;;;;;8.50;2.80;;;;;;;18.27;67.30;102009.56;5054131;28;20437;-72
2023/05/20 10:23:42;;;;;;;8.37;2.83;;;;;;;18.27;67.48;102000.53;5054306;28;20437;-72
2023/05/20 10:26:09;;;;;;;9.70;3.40;;;;;;;18.27;67.72;102001.34;5053727;28;20992;-72
2023/05/20 10:28:37;;;;;;;8.10;3.03;;;;;;;18.47;67.40;101985.44;5053758;28;20954;-72
2023/05/20 10:31:15;;;;;;;9.60;3.10;;;;;;;18.79;67.01;101995.19;5054127;28;20431;-72
2023/05/20 10:33:43;;;;;;;8.40;3.00;;;;;;;19.03;65.06;101990.00;5053638;28;20900;-71
2023/05/20 10:36:10;;;;;;;6.50;2.30;;;;;;;19.01;63.67;101988.72;5054074;28;20434;-72
2023/05/20 10:38:49;;;;;;;7.87;2.73;;;;;;;18.86;64.83;101985.34;5053778;28;20504;-72
2023/05/20 10:41:21;;;;;;;8.10;2.80;;;;;;;18.87;65.29;101991.66;5053993;28;20426;-71
2023/05/20 10:43:59;;;;;;;7.23;2.47;;;;;;;18.93;65.56;101987.59;5054048;28;20423;-72
2023/05/20 10:46:27;;;;;;;11.20;3.90;;;;;;;18.99;64.96;101990.97;5053682;28;20938;-72
2023/05/20 10:48:54;;;;;;;8.00;3.50;;;;;;;19.03;64.91;101986.44;5053538;28;20500;-72
2023/05/20 10:51:21;;;;;;;7.30;2.67;;;;;;;18.98;63.79;101979.19;5053667;28;20454;-72
2023/05/20 10:53:47;;;;;;;7.80;3.00;;;;;;;18.82;65.04;101978.88;5053634;28;20445;-72
2023/05/20 10:56:18;;;;;;;9.80;3.47;;;;;;;18.79;65.53;101973.22;5053816;28;20443;-72
2023/05/20 10:58:44;;;;;;;7.73;3.43;;;;;;;18.93;65.99;101970.31;5053053;28;20482;-71
2023/05/20 11:01:12;;;;;;;7.30;2.50;;;;;;;19.20;65.04;101974.66;5053558;28;20617;-72
2023/05/20 11:03:41;;;;;;;9.20;3.30;;;;;;;19.45;63.82;101976.53;5053466;28;20482;-72
2023/05/20 11:06:12;;;;;;;9.40;3.40;;;;;;;19.68;63.10;101968.91;5053466;28;20447;-72
2023/05/20 11:08:38;;;;;;;8.33;3.30;;;;;;;19.89;62.14;101966.25;5052918;28;20450;-71
2023/05/20 11:11:06;;;;;;;7.73;3.03;;;;;;;19.89;61.58;101960.75;5053141;28;20520;-72
2023/05/20 11:13:33;;;;;;;7.93;2.90;;;;;;;19.80;61.94;101960.78;5053028;28;20512;-72
2023/05/20 11:16:01;;;;;;;8.10;3.13;;;;;;;19.78;62.54;101954.78;5053259;28;20448;-71
2023/05/20 11:18:30;;;;;;;9.87;2.97;;;;;;;19.58;60.81;101947.25;5052895;28;20943;-72
2023/05/20 11:20:59;;;;;;;7.80;2.70;;;;;;;19.47;63.08;101957.78;5053238;28;20470;-72
2023/05/20 11:23:27;;;;;;;6.73;2.30;;;;;;;19.23;63.39;101941.03;5053192;28;20488;-72
2023/05/20 11:25:55;;;;;;;7.33;3.13;;;;;;;19.53;63.26;101959.22;5052778;28;21186;-72